Time;durP1;ratioP1;P1;durP2;ratioP2;P2;SDS_P1;SDS_P2;PMS_P1;PMS_P2;Temp;Humidity;BMP_temperature;BMP_pressure;BME280_temperature;BME280_humidity;BME280_pressure;Samples;Min_cycle;Max_cycle;Signal;HPM_P1;HPM_P2
2021/09/28 00:01:22;;;;;;;0.68;0.17;;;25.00;48.20;;;;;;5053644;28;20739;-48
2021/09/28 00:03:49;;;;;;;0.95;0.10;;;25.00;48.20;;;;;;5049736;28;20134;-49
2021/09/28 00:06:17;;;;;;;0.10;0.10;;;25.00;48.20;;;;;;5054525;28;20071;-49
2021/09/28 00:08:44;;;;;;;0.57;0.13;;;25.00;48.20;;;;;;5055226;28;20056;-47
2021/09/28 00:11:13;;;;;;;0.60;0.20;;;25.00;48.20;;;;;;5053944;28;20161;-51
2021/09/28 00:13:40;;;;;;;0.52;0.40;;;25.00;48.20;;;;;;5065896;28;20048;-50
2021/09/28 00:16:08;;;;;;;0.75;0.10;;;25.00;48.80;;;;;;5051990;28;20056;-50
2021/09/28 00:18:35;;;;;;;0.40;0.30;;;25.00;48.20;;;;;;5059573;28;20037;-47
2021/09/28 00:21:02;;;;;;;1.55;0.10;;;25.00;48.20;;;;;;5054233;28;20059;-48
2021/09/28 00:23:30;;;;;;;1.95;0.20;;;25.00;48.20;;;;;;5057270;28;20512;-49
2021/09/28 00:25:57;;;;;;;1.58;0.17;;;25.00;48.20;;;;;;5033710;28;20056;-51
2021/09/28 00:28:28;;;;;;;0.10;0.10;;;25.00;48.20;;;;;;5068031;28;20524;-48
2021/09/28 00:30:55;;;;;;;0.45;0.10;;;25.00;48.20;;;;;;5054342;28;20044;-50
2021/09/28 00:33:22;;;;;;;0.20;0.20;;;25.00;48.20;;;;;;5052434;28;20037;-54
2021/09/28 00:35:49;;;;;;;0.80;0.20;;;25.00;48.20;;;;;;5052530;28;20134;-47
2021/09/28 00:38:16;;;;;;;0.22;0.20;;;25.00;48.20;;;;;;5052727;28;20413;-48
2021/09/28 00:40:44;;;;;;;1.52;0.13;;;25.00;48.20;;;;;;5051905;28;20048;-49
2021/09/28 00:43:11;;;;;;;0.90;0.10;;;24.90;48.10;;;;;;5056134;28;20721;-50
2021/09/28 00:45:38;;;;;;;0.40;0.30;;;24.90;48.10;;;;;;5065018;28;20604;-48
2021/09/28 00:48:05;;;;;;;0.55;0.55;;;24.90;48.10;;;;;;5055872;28;20484;-49
2021/09/28 00:50:32;;;;;;;0.40;0.20;;;24.90;48.10;;;;;;5052486;28;20060;-48
2021/09/28 00:53:00;;;;;;;0.10;0.10;;;24.90;48.10;;;;;;5058871;28;20040;-51
2021/09/28 00:55:28;;;;;;;0.65;0.10;;;24.90;48.10;;;;;;5066586;28;20048;-50
2021/09/28 00:58:02;;;;;;;0.88;0.10;;;24.90;48.10;;;;;;5049874;28;20037;-49
2021/09/28 01:00:29;;;;;;;0.30;0.20;;;24.90;48.20;;;;;;5054086;28;20052;-51
2021/09/28 01:02:58;;;;;;;0.55;0.10;;;24.90;48.10;;;;;;5058951;28;20068;-49
2021/09/28 01:05:25;;;;;;;0.10;0.10;;;24.90;48.10;;;;;;5056336;28;20044;-50
2021/09/28 01:07:52;;;;;;;0.15;0.10;;;24.90;48.10;;;;;;5052443;28;20049;-50
2021/09/28 01:10:20;;;;;;;0.25;0.10;;;24.90;48.10;;;;;;5051432;28;20028;-51
2021/09/28 01:12:47;;;;;;;0.10;0.10;;;24.90;48.10;;;;;;5048914;28;20056;-49
2021/09/28 01:15:16;;;;;;;0.17;0.10;;;24.90;48.10;;;;;;5052672;28;20037;-48
2021/09/28 01:17:44;;;;;;;2.00;0.17;;;24.90;48.10;;;;;;5051767;28;20068;-49
2021/09/28 01:20:12;;;;;;;0.10;0.10;;;24.90;48.10;;;;;;5057432;28;20039;-47
2021/09/28 01:22:41;;;;;;;0.50;0.10;;;24.90;48.10;;;;;;5050158;28;20056;-50
2021/09/28 01:25:08;;;;;;;0.20;0.10;;;24.90;48.10;;;;;;5050051;28;20208;-48
2021/09/28 01:27:38;;;;;;;0.10;0.10;;;24.90;48.10;;;;;;5063563;28;20063;-51
2021/09/28 01:30:06;;;;;;;0.40;0.10;;;24.90;48.10;;;;;;5051630;28;20052;-49
2021/09/28 01:32:33;;;;;;;0.25;0.10;;;24.90;48.10;;;;;;5053564;28;20457;-48
2021/09/28 01:35:01;;;;;;;1.17;0.10;;;24.90;48.20;;;;;;5052179;28;20067;-48
2021/09/28 01:37:28;;;;;;;0.63;0.45;;;24.90;48.10;;;;;;5048923;28;20074;-49
2021/09/28 01:39:56;;;;;;;0.90;0.10;;;24.90;48.10;;;;;;5051224;28;20033;-48
2021/09/28 01:42:23;;;;;;;1.35;0.10;;;24.80;48.10;;;;;;5051061;28;20045;-51
2021/09/28 01:44:50;;;;;;;0.50;0.10;;;24.80;48.10;;;;;;5051928;28;20056;-49
2021/09/28 01:47:17;;;;;;;0.10;0.10;;;24.90;48.10;;;;;;5052324;28;20051;-50
2021/09/28 01:49:45;;;;;;;0.73;0.00;;;24.80;48.10;;;;;;5062544;28;20186;-49
2021/09/28 01:52:12;;;;;;;0.20;0.10;;;24.90;48.10;;;;;;5050484;28;20033;-49
2021/09/28 01:54:39;;;;;;;0.90;0.10;;;24.80;48.10;;;;;;5049444;28;20458;-49
2021/09/28 01:57:08;;;;;;;0.75;0.75;;;24.80;48.10;;;;;;5050989;28;20223;-47
2021/09/28 01:59:35;;;;;;;0.20;0.20;;;24.80;48.10;;;;;;5051507;28;20505;-48
2021/09/28 02:02:02;;;;;;;0.47;0.10;;;24.80;48.10;;;;;;5053391;28;20079;-48
2021/09/28 02:04:29;;;;;;;0.15;0.15;;;24.80;48.10;;;;;;5050032;28;20148;-49
2021/09/28 02:06:56;;;;;;;0.10;0.10;;;24.80;48.10;;;;;;5047062;28;20537;-47
2021/09/28 02:09:23;;;;;;;0.10;0.10;;;24.80;48.10;;;;;;5063642;28;20045;-48
2021/09/28 02:11:50;;;;;;;1.23;0.10;;;24.80;48.10;;;;;;5058812;28;20047;-49
2021/09/28 02:14:19;;;;;;;0.43;0.00;;;24.80;48.10;;;;;;5058784;28;20569;-47
2021/09/28 02:16:46;;;;;;;0.13;0.10;;;24.80;48.10;;;;;;5050975;28;20076;-50
2021/09/28 02:19:13;;;;;;;0.35;0.32;;;24.80;48.10;;;;;;5058361;28;20037;-49
2021/09/28 02:21:40;;;;;;;0.17;0.13;;;24.80;48.10;;;;;;5047927;28;20049;-47
2021/09/28 02:24:07;;;;;;;0.10;0.10;;;24.80;48.10;;;;;;5060812;28;20040;-50
2021/09/28 02:26:34;;;;;;;0.00;0.00;;;24.80;48.10;;;;;;5055702;28;20037;-48
2021/09/28 02:29:02;;;;;;;0.13;0.10;;;24.80;48.10;;;;;;5051833;28;20048;-50
2021/09/28 02:31:31;;;;;;;0.10;0.10;;;24.70;48.00;;;;;;5053011;28;20043;-49
2021/09/28 02:33:58;;;;;;;0.30;0.10;;;24.80;48.10;;;;;;5047850;28;20063;-49
2021/09/28 02:36:24;;;;;;;0.32;0.10;;;24.80;48.10;;;;;;5049757;28;20045;-49
2021/09/28 02:38:51;;;;;;;0.10;0.10;;;24.70;48.10;;;;;;5050818;28;20520;-47
2021/09/28 02:41:19;;;;;;;0.15;0.10;;;24.70;48.60;;;;;;5050318;28;20029;-50
2021/09/28 02:43:46;;;;;;;0.28;0.10;;;24.80;48.10;;;;;;5052630;28;20416;-50
2021/09/28 02:46:13;;;;;;;0.38;0.10;;;24.70;48.00;;;;;;5053850;28;20127;-50
2021/09/28 02:48:41;;;;;;;0.35;0.10;;;24.80;48.70;;;;;;5048041;28;20041;-48
2021/09/28 02:51:08;;;;;;;0.55;0.05;;;24.80;48.00;;;;;;5058665;28;20052;-51
2021/09/28 02:53:35;;;;;;;0.30;0.10;;;24.70;48.00;;;;;;5054832;28;20584;-49
2021/09/28 02:56:02;;;;;;;0.32;0.10;;;24.70;48.00;;;;;;5063850;28;20040;-49
2021/09/28 02:58:29;;;;;;;1.38;0.10;;;24.70;48.00;;;;;;5063604;28;20048;-47
2021/09/28 03:00:56;;;;;;;0.10;0.10;;;24.70;48.00;;;;;;5052326;28;20048;-48
2021/09/28 03:03:23;;;;;;;0.10;0.00;;;24.70;48.00;;;;;;5054575;28;20036;-48
2021/09/28 03:05:52;;;;;;;0.17;0.10;;;24.70;48.00;;;;;;5052673;28;20041;-50
2021/09/28 03:08:18;;;;;;;0.73;0.10;;;24.70;48.00;;;;;;5049334;28;20068;-47
2021/09/28 03:10:45;;;;;;;0.93;0.10;;;24.70;48.00;;;;;;5050103;28;20040;-50
2021/09/28 03:13:13;;;;;;;0.03;0.00;;;24.70;48.00;;;;;;5048644;28;20052;-47
2021/09/28 03:15:40;;;;;;;0.10;0.10;;;24.70;48.00;;;;;;5052135;28;20037;-48
2021/09/28 03:18:07;;;;;;;0.20;0.10;;;24.70;48.10;;;;;;5050366;28;20101;-47
2021/09/28 03:20:35;;;;;;;0.45;0.10;;;24.70;48.10;;;;;;5049714;28;20044;-49
2021/09/28 03:23:03;;;;;;;0.43;0.10;;;24.70;48.10;;;;;;5049603;28;20049;-49
2021/09/28 03:25:30;;;;;;;0.20;0.10;;;24.70;48.00;;;;;;5047788;28;20170;-49
2021/09/28 03:27:58;;;;;;;0.82;0.03;;;24.70;48.10;;;;;;5062942;28;20076;-47
2021/09/28 03:30:25;;;;;;;0.10;0.10;;;24.70;48.00;;;;;;5053220;28;20039;-49
2021/09/28 03:32:52;;;;;;;0.10;0.10;;;24.60;48.00;;;;;;5058889;28;20051;-49
2021/09/28 03:35:19;;;;;;;0.10;0.10;;;24.70;48.00;;;;;;5056709;28;20063;-48
2021/09/28 03:37:49;;;;;;;0.10;0.10;;;24.60;48.00;;;;;;5050154;28;20064;-48
2021/09/28 03:40:18;;;;;;;0.00;0.00;;;24.60;48.00;;;;;;5046969;28;20037;-51
2021/09/28 03:42:46;;;;;;;3.40;0.73;;;24.60;48.00;;;;;;5062669;28;20045;-47
2021/09/28 03:45:14;;;;;;;0.40;0.00;;;24.60;48.00;;;;;;5051521;28;20654;-49
2021/09/28 03:47:41;;;;;;;0.55;0.00;;;24.60;48.00;;;;;;5049864;28;20524;-47
2021/09/28 03:50:08;;;;;;;0.10;0.10;;;24.60;48.00;;;;;;5052861;28;20057;-50
2021/09/28 03:52:36;;;;;;;0.55;0.55;;;24.60;48.10;;;;;;5048889;28;20037;-49
2021/09/28 03:55:04;;;;;;;1.40;0.08;;;24.60;48.10;;;;;;5061307;28;20052;-47
2021/09/28 03:57:33;;;;;;;2.13;0.10;;;24.60;48.00;;;;;;5048662;28;20124;-46
2021/09/28 04:00:01;;;;;;;1.45;0.68;;;24.60;48.00;;;;;;5051953;28;20037;-47
2021/09/28 04:02:31;;;;;;;0.10;0.10;;;24.60;48.00;;;;;;5053065;28;20040;-47
2021/09/28 04:04:58;;;;;;;0.70;0.10;;;24.60;48.00;;;;;;5058030;28;20041;-50
2021/09/28 04:07:25;;;;;;;0.30;0.08;;;24.60;48.00;;;;;;5062445;28;20036;-47
2021/09/28 04:09:52;;;;;;;1.52;0.10;;;24.60;48.00;;;;;;5064867;28;20520;-46
2021/09/28 04:12:19;;;;;;;0.40;0.10;;;24.60;48.00;;;;;;5063306;28;20470;-48
2021/09/28 04:14:48;;;;;;;0.30;0.10;;;24.60;48.00;;;;;;5057250;28;20116;-48
2021/09/28 04:17:15;;;;;;;0.13;0.10;;;24.60;48.00;;;;;;5052623;28;20056;-50
2021/09/28 04:19:42;;;;;;;0.20;0.10;;;24.60;48.00;;;;;;5056636;28;20034;-48
2021/09/28 04:22:09;;;;;;;0.10;0.10;;;24.60;48.10;;;;;;5068092;28;20056;-48
2021/09/28 04:24:36;;;;;;;0.30;0.10;;;24.60;48.00;;;;;;5051123;28;20045;-48
2021/09/28 04:27:05;;;;;;;1.83;0.15;;;24.60;48.10;;;;;;5052602;28;20041;-48
2021/09/28 04:29:32;;;;;;;0.10;0.10;;;24.60;48.10;;;;;;5053972;28;20382;-48
2021/09/28 04:32:01;;;;;;;0.55;0.17;;;24.50;48.00;;;;;;5059528;28;20051;-51
2021/09/28 04:34:28;;;;;;;0.10;0.10;;;24.60;48.00;;;;;;5055661;28;20037;-48
2021/09/28 04:36:55;;;;;;;0.32;0.00;;;24.50;48.00;;;;;;5065904;28;20040;-47
2021/09/28 04:39:22;;;;;;;1.38;0.10;;;24.60;48.00;;;;;;5073176;28;20040;-48
2021/09/28 04:41:49;;;;;;;0.10;0.10;;;24.50;48.00;;;;;;5065118;28;20129;-46
2021/09/28 04:44:16;;;;;;;0.38;0.10;;;24.50;48.00;;;;;;5061498;28;20041;-49
2021/09/28 04:46:43;;;;;;;0.10;0.00;;;24.50;48.00;;;;;;5062399;28;20526;-48
2021/09/28 04:49:11;;;;;;;1.27;0.10;;;24.50;48.00;;;;;;5066616;28;20041;-50
2021/09/28 04:51:38;;;;;;;1.23;0.10;;;24.50;48.00;;;;;;5050284;28;20520;-50
2021/09/28 04:54:05;;;;;;;0.22;0.08;;;24.50;48.00;;;;;;5057230;28;20045;-48
2021/09/28 04:56:32;;;;;;;0.20;0.10;;;24.50;48.00;;;;;;5055926;28;20044;-46
2021/09/28 04:59:00;;;;;;;0.10;0.10;;;24.50;48.00;;;;;;5061177;28;20052;-52
2021/09/28 05:01:27;;;;;;;0.80;0.10;;;24.50;48.00;;;;;;5065468;28;20040;-51
2021/09/28 05:03:53;;;;;;;0.88;0.25;;;24.50;48.00;;;;;;5067944;28;20044;-47
2021/09/28 05:06:22;;;;;;;0.75;0.08;;;24.50;48.00;;;;;;5053515;28;20510;-48
2021/09/28 05:08:49;;;;;;;0.10;0.10;;;24.50;48.00;;;;;;5052795;28;20052;-48
2021/09/28 05:11:16;;;;;;;0.20;0.10;;;24.40;47.90;;;;;;5051497;28;20655;-48
2021/09/28 05:13:43;;;;;;;0.93;0.20;;;24.40;47.90;;;;;;5052158;28;20049;-47
2021/09/28 05:16:10;;;;;;;1.20;0.10;;;24.50;48.00;;;;;;5067527;28;20135;-49
2021/09/28 05:18:37;;;;;;;0.45;0.10;;;24.50;48.00;;;;;;5053242;28;20440;-48
2021/09/28 05:21:04;;;;;;;0.10;0.10;;;24.50;48.00;;;;;;5060318;28;20059;-47
2021/09/28 05:23:32;;;;;;;0.10;0.10;;;24.40;47.90;;;;;;5056398;28;20041;-46
2021/09/28 05:25:59;;;;;;;0.43;0.10;;;24.40;47.90;;;;;;5059786;28;20047;-47
2021/09/28 05:28:26;;;;;;;1.55;0.10;;;24.40;47.90;;;;;;5050357;28;20056;-47
2021/09/28 05:30:54;;;;;;;0.73;0.38;;;24.40;47.90;;;;;;5048897;28;20575;-47
2021/09/28 05:33:22;;;;;;;1.17;0.10;;;24.40;47.90;;;;;;5054219;28;20335;-49
2021/09/28 05:35:49;;;;;;;0.10;0.10;;;24.40;48.00;;;;;;5051423;28;20041;-47
2021/09/28 05:38:16;;;;;;;0.10;0.10;;;24.40;48.00;;;;;;5051665;28;20402;-48
2021/09/28 05:40:44;;;;;;;0.17;0.05;;;24.40;48.00;;;;;;5058985;28;20044;-50
2021/09/28 05:43:11;;;;;;;0.57;0.10;;;24.40;47.90;;;;;;5066305;28;20520;-48
2021/09/28 05:45:38;;;;;;;0.98;0.20;;;24.40;48.00;;;;;;5065409;28;20032;-48
2021/09/28 05:48:05;;;;;;;3.40;0.03;;;24.40;47.90;;;;;;5056776;28;20383;-49
2021/09/28 05:50:34;;;;;;;0.30;0.10;;;24.40;48.00;;;;;;5055569;28;20086;-49
2021/09/28 05:53:06;;;;;;;1.05;0.10;;;24.40;47.90;;;;;;5050865;28;20441;-46
2021/09/28 05:55:33;;;;;;;0.52;0.10;;;24.40;48.00;;;;;;5059144;28;20103;-48
2021/09/28 05:58:02;;;;;;;1.05;0.35;;;24.40;48.00;;;;;;5050614;28;20059;-47
2021/09/28 06:00:29;;;;;;;0.10;0.00;;;24.40;47.90;;;;;;5049790;28;20055;-48
2021/09/28 06:02:56;;;;;;;2.00;0.10;;;24.40;48.00;;;;;;5059827;28;20037;-48
2021/09/28 06:05:23;;;;;;;1.23;0.10;;;24.40;47.90;;;;;;5055853;28;20072;-47
2021/09/28 06:07:50;;;;;;;1.55;0.10;;;24.40;47.90;;;;;;5050378;28;20088;-47
2021/09/28 06:10:17;;;;;;;0.95;0.10;;;24.40;48.20;;;;;;5049052;28;20412;-55
2021/09/28 06:12:44;;;;;;;0.20;0.10;;;24.40;47.90;;;;;;5063677;28;20049;-47
2021/09/28 06:15:13;;;;;;;0.30;0.20;;;24.40;47.90;;;;;;5057937;28;20567;-48
2021/09/28 06:17:40;;;;;;;0.28;0.10;;;24.40;47.90;;;;;;5059304;28;20090;-47
2021/09/28 06:20:09;;;;;;;0.47;0.28;;;24.30;47.80;;;;;;5058260;28;20102;-47
2021/09/28 06:22:36;;;;;;;2.25;0.17;;;24.40;47.80;;;;;;5059801;28;20132;-48
2021/09/28 06:25:04;;;;;;;0.75;0.10;;;24.40;47.80;;;;;;5064130;28;20052;-48
2021/09/28 06:27:31;;;;;;;1.10;0.28;;;24.30;47.80;;;;;;5067057;28;20047;-47
2021/09/28 06:29:57;;;;;;;2.40;0.10;;;24.30;47.70;;;;;;5066370;28;20338;-49
2021/09/28 06:32:27;;;;;;;1.13;0.20;;;24.40;47.80;;;;;;5056072;28;20044;-47
2021/09/28 06:34:54;;;;;;;1.52;0.20;;;24.30;47.70;;;;;;5051660;28;20036;-47
2021/09/28 06:37:21;;;;;;;0.98;0.20;;;24.40;47.80;;;;;;5050001;28;20048;-49
2021/09/28 06:39:48;;;;;;;0.70;0.20;;;24.40;47.80;;;;;;5047034;28;20052;-50
2021/09/28 06:42:15;;;;;;;0.30;0.20;;;24.30;47.80;;;;;;5048815;28;20044;-53
2021/09/28 06:44:42;;;;;;;0.20;0.10;;;24.40;47.80;;;;;;5057087;28;20044;-49
2021/09/28 06:47:09;;;;;;;0.73;0.10;;;24.40;47.80;;;;;;5059892;28;20048;-49
2021/09/28 06:49:38;;;;;;;0.30;0.10;;;24.40;47.80;;;;;;5053490;28;20048;-48
2021/09/28 06:52:06;;;;;;;0.55;0.10;;;24.40;47.80;;;;;;5064849;28;20051;-49
2021/09/28 06:54:33;;;;;;;0.10;0.10;;;24.40;47.80;;;;;;5054504;28;20078;-49
2021/09/28 06:57:00;;;;;;;0.30;0.10;;;24.40;47.80;;;;;;5057827;28;20055;-50
2021/09/28 06:59:27;;;;;;;0.52;0.10;;;24.40;47.80;;;;;;5053164;28;20409;-48
2021/09/28 07:01:54;;;;;;;1.45;0.40;;;24.40;47.70;;;;;;5052111;28;20064;-50
2021/09/28 07:04:22;;;;;;;0.40;0.10;;;24.40;47.70;;;;;;5049598;28;21014;-51
2021/09/28 07:06:50;;;;;;;1.88;0.40;;;24.30;47.70;;;;;;5046592;28;20053;-50
2021/09/28 07:09:18;;;;;;;0.28;0.20;;;24.40;47.70;;;;;;5061535;28;20060;-48
2021/09/28 07:11:45;;;;;;;0.30;0.10;;;24.40;47.70;;;;;;5059210;28;20052;-47
2021/09/28 07:14:12;;;;;;;0.93;0.55;;;24.40;47.70;;;;;;5061675;28;20079;-49
2021/09/28 07:16:39;;;;;;;0.38;0.38;;;24.40;47.70;;;;;;5062565;28;20033;-49
2021/09/28 07:19:06;;;;;;;0.65;0.10;;;24.40;47.70;;;;;;5051989;28;20144;-50
2021/09/28 07:21:33;;;;;;;1.17;0.22;;;24.30;48.20;;;;;;5051780;28;20041;-50
2021/09/28 07:24:01;;;;;;;1.73;0.25;;;24.40;47.60;;;;;;5050553;28;20048;-50
2021/09/28 07:26:28;;;;;;;0.20;0.10;;;24.40;47.60;;;;;;5049647;28;20400;-48
2021/09/28 07:28:55;;;;;;;2.13;0.10;;;24.40;47.60;;;;;;5058334;28;20529;-48
2021/09/28 07:31:22;;;;;;;0.85;0.10;;;24.40;47.60;;;;;;5051394;28;20051;-47
2021/09/28 07:33:49;;;;;;;0.45;0.15;;;24.40;47.60;;;;;;5046861;28;20525;-48
2021/09/28 07:36:16;;;;;;;2.90;0.10;;;24.40;47.60;;;;;;5051225;28;20037;-47
2021/09/28 07:38:43;;;;;;;0.52;0.10;;;24.40;47.60;;;;;;5055016;28;20045;-48
2021/09/28 07:41:12;;;;;;;3.30;0.20;;;24.40;47.60;;;;;;5057844;28;20045;-48
2021/09/28 07:43:39;;;;;;;1.65;0.10;;;24.40;47.60;;;;;;5049044;28;20147;-49
2021/09/28 07:46:07;;;;;;;0.32;0.32;;;24.40;47.50;;;;;;5052651;28;20040;-47
2021/09/28 07:48:34;;;;;;;0.95;0.38;;;24.40;47.50;;;;;;5052444;28;20460;-48
2021/09/28 07:51:01;;;;;;;0.85;0.40;;;24.40;47.50;;;;;;5053786;28;20064;-48
2021/09/28 07:53:28;;;;;;;0.95;0.10;;;24.40;47.50;;;;;;5056788;28;20041;-49
2021/09/28 07:55:56;;;;;;;1.88;0.40;;;24.40;47.50;;;;;;5060729;28;20075;-48
2021/09/28 07:58:24;;;;;;;1.88;0.43;;;24.40;47.40;;;;;;5053838;28;20040;-48
2021/09/28 08:00:53;;;;;;;0.50;0.10;;;24.40;47.50;;;;;;5065893;28;20052;-49
2021/09/28 08:03:21;;;;;;;2.38;0.10;;;24.40;47.50;;;;;;5065328;28;20040;-50
2021/09/28 08:05:49;;;;;;;0.30;0.20;;;24.40;47.40;;;;;;5064747;28;20052;-49
2021/09/28 08:08:16;;;;;;;0.85;0.55;;;24.40;47.40;;;;;;5060786;28;20125;-49
2021/09/28 08:10:43;;;;;;;0.82;0.10;;;24.40;47.40;;;;;;5055078;28;20040;-49
2021/09/28 08:13:10;;;;;;;2.35;0.20;;;24.40;47.40;;;;;;5050138;28;20053;-51
2021/09/28 08:15:38;;;;;;;1.15;0.10;;;24.40;47.40;;;;;;5064014;28;20039;-47
2021/09/28 08:18:05;;;;;;;2.13;0.17;;;24.40;47.40;;;;;;5054753;28;20048;-48
2021/09/28 08:20:32;;;;;;;0.17;0.10;;;24.40;48.00;;;;;;5057912;28;20524;-49
2021/09/28 08:23:00;;;;;;;2.40;0.20;;;24.50;47.40;;;;;;5062147;28;20037;-50
2021/09/28 08:25:35;;;;;;;3.05;0.28;;;24.40;47.40;;;;;;5065866;28;20522;-48
2021/09/28 08:30:49;;;;;;;0.63;0.20;;;24.40;47.40;;;;;;5063802;28;20555;-59
2021/09/28 08:33:16;;;;;;;1.20;0.10;;;24.40;48.20;;;;;;5049674;28;20037;-59
2021/09/28 08:35:43;;;;;;;0.40;0.10;;;24.40;48.30;;;;;;5050889;28;20052;-59
2021/09/28 08:38:10;;;;;;;2.38;0.20;;;24.40;48.30;;;;;;5052936;28;20036;-59
2021/09/28 08:40:37;;;;;;;0.73;0.52;;;24.50;48.30;;;;;;5059406;28;20050;-60
2021/09/28 08:43:05;;;;;;;0.73;0.20;;;24.50;48.30;;;;;;5065472;28;20045;-59
2021/09/28 08:45:32;;;;;;;4.40;0.30;;;24.40;48.50;;;;;;5068471;28;20063;-53
2021/09/28 08:48:00;;;;;;;1.85;0.20;;;24.50;48.60;;;;;;5057941;28;20064;-59
2021/09/28 08:50:27;;;;;;;1.38;0.20;;;24.40;48.50;;;;;;5051709;28;20123;-58
2021/09/28 08:52:55;;;;;;;1.10;0.30;;;24.40;48.50;;;;;;5055050;28;20505;-58
2021/09/28 08:55:23;;;;;;;2.25;0.20;;;24.50;48.60;;;;;;5057254;28;20457;-59
2021/09/28 08:57:51;;;;;;;1.75;0.30;;;24.50;48.60;;;;;;5065324;28;20066;-58
2021/09/28 09:00:22;;;;;;;2.13;0.40;;;24.50;48.80;;;;;;5071202;28;20048;-57
2021/09/28 09:02:49;;;;;;;1.95;0.75;;;24.50;48.90;;;;;;5062464;28;20420;-57
2021/09/28 09:05:18;;;;;;;1.42;0.10;;;24.60;49.50;;;;;;5061710;28;20111;-57
2021/09/28 09:07:58;;;;;;;2.10;0.30;;;24.50;48.90;;;;;;5067325;28;20160;-56
2021/09/28 09:10:30;;;;;;;3.60;0.60;;;24.60;48.80;;;;;;5057928;28;20505;-57
2021/09/28 09:12:57;;;;;;;0.65;0.10;;;24.60;48.80;;;;;;5066621;28;20541;-56
2021/09/28 09:15:27;;;;;;;1.40;0.47;;;24.60;48.70;;;;;;5065909;28;20051;-56
2021/09/28 09:17:56;;;;;;;1.67;0.20;;;24.60;49.30;;;;;;5064332;28;20055;-57
2021/09/28 09:20:37;;;;;;;2.05;0.20;;;24.60;48.60;;;;;;5055044;28;20540;-56
2021/09/28 09:23:21;;;;;;;0.63;0.20;;;24.60;48.50;;;;;;5073225;28;20409;-56
2021/09/28 09:25:58;;;;;;;0.93;0.10;;;24.60;48.50;;;;;;5063004;28;20090;-57
2021/09/28 09:28:31;;;;;;;2.83;0.20;;;24.60;48.50;;;;;;5051558;28;20075;-57
2021/09/28 09:31:12;;;;;;;1.80;0.17;;;24.60;48.40;;;;;;5050702;28;20067;-57
2021/09/28 09:33:40;;;;;;;0.85;0.10;;;24.60;48.60;;;;;;5050481;28;20051;-57
2021/09/28 09:36:09;;;;;;;1.52;0.10;;;24.60;48.90;;;;;;5051475;28;20063;-55
2021/09/28 09:38:43;;;;;;;2.35;0.43;;;24.60;48.90;;;;;;5052758;28;20045;-56
2021/09/28 09:41:10;;;;;;;5.50;0.63;;;24.60;48.80;;;;;;5060635;28;20036;-58
2021/09/28 09:43:37;;;;;;;2.20;0.40;;;24.60;48.70;;;;;;5055078;28;20509;-62
2021/09/28 09:46:13;;;;;;;0.70;0.13;;;24.60;48.60;;;;;;5064245;28;20048;-57
2021/09/28 09:48:41;;;;;;;1.58;0.52;;;24.60;48.60;;;;;;5072808;28;20052;-56
2021/09/28 09:51:12;;;;;;;1.05;0.20;;;24.60;48.50;;;;;;5055777;28;20460;-57
2021/09/28 09:53:51;;;;;;;0.95;0.10;;;24.70;48.40;;;;;;5052039;28;20049;-57
2021/09/28 09:56:19;;;;;;;2.25;0.38;;;24.70;48.30;;;;;;5055891;28;20055;-57
2021/09/28 09:58:46;;;;;;;2.40;0.17;;;24.60;48.30;;;;;;5054553;28;20540;-57
2021/09/28 10:01:14;;;;;;;2.22;0.10;;;24.60;48.10;;;;;;5050952;28;20048;-57
2021/09/28 10:03:41;;;;;;;1.08;0.10;;;24.70;48.10;;;;;;5053117;28;20040;-58
2021/09/28 10:06:10;;;;;;;2.35;0.20;;;24.70;48.10;;;;;;5060177;28;20052;-57
2021/09/28 10:08:44;;;;;;;4.90;0.52;;;24.70;48.00;;;;;;5062462;28;20049;-56
2021/09/28 10:11:11;;;;;;;0.35;0.10;;;24.70;48.00;;;;;;5063305;28;20059;-56
2021/09/28 10:14:02;;;;;;;2.67;0.20;;;24.70;47.90;;;;;;5050599;28;20037;-56
2021/09/28 10:16:40;;;;;;;1.27;0.10;;;24.80;47.90;;;;;;5047271;28;20045;-58
2021/09/28 10:19:48;;;;;;;2.83;0.10;;;24.70;47.80;;;;;;5047522;28;20832;-56
2021/09/28 10:22:39;;;;;;;0.75;0.13;;;24.80;47.70;;;;;;5023913;28;20046;-57
2021/09/28 10:25:44;;;;;;;3.53;0.30;;;24.80;47.70;;;;;;5021861;28;20053;-58
2021/09/28 10:28:41;;;;;;;1.27;0.08;;;24.80;47.60;;;;;;5022550;28;20176;-57
2021/09/28 10:31:14;;;;;;;1.17;0.10;;;24.80;47.60;;;;;;5022622;28;20072;-56
2021/09/28 10:33:53;;;;;;;1.40;0.20;;;24.80;47.50;;;;;;5025642;28;20044;-56
2021/09/28 10:36:23;;;;;;;2.85;1.20;;;24.80;47.40;;;;;;5025161;28;20162;-57
2021/09/28 10:39:00;;;;;;;1.95;0.10;;;24.80;47.40;;;;;;5024137;28;20049;-57
2021/09/28 10:41:44;;;;;;;0.60;0.10;;;24.80;47.30;;;;;;5023735;28;20050;-57
2021/09/28 10:44:39;;;;;;;0.82;0.10;;;24.80;47.20;;;;;;5022868;28;20203;-56
2021/09/28 10:47:08;;;;;;;1.95;0.10;;;24.80;47.10;;;;;;5021167;28;20128;-54
2021/09/28 10:49:36;;;;;;;2.67;0.10;;;24.80;47.20;;;;;;5007086;28;20510;-57
2021/09/28 10:52:37;;;;;;;0.25;0.10;;;24.80;47.10;;;;;;5023075;28;20049;-56
2021/09/28 10:55:23;;;;;;;1.85;0.10;;;24.90;46.90;;;;;;5021601;28;20088;-56
2021/09/28 10:58:17;;;;;;;2.33;0.28;;;24.90;46.90;;;;;;5042862;28;20143;-57
2021/09/28 11:01:08;;;;;;;4.03;0.10;;;24.90;46.90;;;;;;5049602;28;20475;-57
2021/09/28 11:04:21;;;;;;;0.30;0.10;;;24.90;46.80;;;;;;5051630;28;20060;-57
2021/09/28 11:06:58;;;;;;;3.63;0.10;;;24.90;46.70;;;;;;5054941;28;20133;-57
2021/09/28 11:09:43;;;;;;;1.48;0.10;;;24.90;47.20;;;;;;5047510;28;20041;-58
2021/09/28 11:12:12;;;;;;;0.60;0.20;;;24.90;46.60;;;;;;5051606;28;20045;-57
2021/09/28 11:14:39;;;;;;;0.52;0.10;;;24.90;46.60;;;;;;5060168;28;20036;-57
2021/09/28 11:17:16;;;;;;;1.85;0.10;;;24.90;46.50;;;;;;5058062;28;20048;-57
2021/09/28 11:19:44;;;;;;;0.50;0.25;;;24.90;46.40;;;;;;5052441;28;20120;-57
2021/09/28 11:22:19;;;;;;;1.00;0.38;;;24.90;46.30;;;;;;5054308;28;20056;-56
2021/09/28 11:24:47;;;;;;;2.38;0.10;;;25.00;46.30;;;;;;5051881;28;20120;-56
2021/09/28 11:27:15;;;;;;;1.10;0.20;;;25.00;46.30;;;;;;5054051;28;20087;-56
2021/09/28 11:29:42;;;;;;;2.70;0.28;;;24.90;46.10;;;;;;5059984;28;20037;-57
2021/09/28 11:32:12;;;;;;;0.65;0.20;;;25.00;46.10;;;;;;5063617;28;20040;-56
2021/09/28 11:34:41;;;;;;;0.65;0.03;;;25.00;46.00;;;;;;5053274;28;20594;-56
2021/09/28 11:37:08;;;;;;;0.80;0.00;;;25.00;45.90;;;;;;5056239;28;20062;-56
2021/09/28 11:39:40;;;;;;;2.17;0.10;;;25.00;45.80;;;;;;5052585;28;20051;-56
2021/09/28 11:42:09;;;;;;;3.15;0.10;;;25.10;45.70;;;;;;5054718;28;20037;-57
2021/09/28 11:44:41;;;;;;;2.28;0.55;;;25.00;45.60;;;;;;5056780;28;20033;-56
2021/09/28 11:47:13;;;;;;;0.82;0.13;;;25.00;45.50;;;;;;5062830;28;20825;-56
2021/09/28 11:49:52;;;;;;;1.35;0.30;;;25.10;45.50;;;;;;5055334;28;20068;-57
2021/09/28 11:52:20;;;;;;;1.40;0.75;;;25.10;45.40;;;;;;5054426;28;20041;-56
2021/09/28 11:54:48;;;;;;;0.95;0.10;;;25.00;45.40;;;;;;5051409;28;20794;-56
2021/09/28 11:57:16;;;;;;;0.22;0.17;;;25.10;45.30;;;;;;5060284;28;20049;-56
2021/09/28 11:59:45;;;;;;;0.60;0.10;;;25.10;45.30;;;;;;5058434;28;20048;-54
2021/09/28 12:02:15;;;;;;;1.38;0.10;;;25.10;45.20;;;;;;5054155;28;20044;-56
2021/09/28 12:08:04;;;;;;;0.20;0.10;;;25.10;45.10;;;;;;5011107;28;20522;-54
2021/09/28 12:10:39;;;;;;;0.80;0.10;;;25.10;45.20;;;;;;5009496;28;20046;-56
2021/09/28 12:13:26;;;;;;;0.20;0.00;;;25.10;45.10;;;;;;5008817;28;20073;-54
2021/09/28 12:16:13;;;;;;;0.30;0.20;;;25.20;45.20;;;;;;5018192;28;20883;-55
2021/09/28 12:18:40;;;;;;;1.92;0.10;;;25.10;45.10;;;;;;5026814;28;20048;-56
2021/09/28 12:21:25;;;;;;;2.78;0.08;;;25.10;45.10;;;;;;5000001;28;20569;-56
2021/09/28 12:24:16;;;;;;;0.20;0.10;;;25.20;45.10;;;;;;5009180;28;20042;-54
2021/09/28 12:26:44;;;;;;;0.45;0.10;;;25.20;45.00;;;;;;5010835;28;20052;-56
2021/09/28 12:29:13;;;;;;;0.73;0.10;;;25.10;45.00;;;;;;5015064;28;20219;-56
2021/09/28 12:31:41;;;;;;;1.95;0.10;;;25.20;45.00;;;;;;5012401;28;20177;-58
2021/09/28 12:34:10;;;;;;;0.20;0.10;;;25.20;45.00;;;;;;5007461;28;20054;-57
2021/09/28 12:36:37;;;;;;;1.55;0.20;;;25.20;45.00;;;;;;5012625;28;20090;-58
2021/09/28 12:39:24;;;;;;;1.20;0.10;;;25.20;44.90;;;;;;5019321;28;20067;-57
2021/09/28 12:42:12;;;;;;;0.20;0.10;;;25.30;44.90;;;;;;5014084;28;20485;-55
2021/09/28 12:44:39;;;;;;;3.30;0.30;;;25.30;44.90;;;;;;5043374;28;20040;-56
2021/09/28 12:47:30;;;;;;;0.68;0.10;;;25.30;45.00;;;;;;5053268;28;20069;-58
2021/09/28 12:49:58;;;;;;;0.10;0.10;;;25.30;44.90;;;;;;5065010;28;20045;-55
2021/09/28 12:52:25;;;;;;;2.25;0.10;;;25.30;45.00;;;;;;5064915;28;20033;-55
2021/09/28 12:54:52;;;;;;;0.30;0.10;;;25.30;44.90;;;;;;5052650;28;20049;-54
2021/09/28 12:57:19;;;;;;;0.20;0.10;;;25.30;44.90;;;;;;5055035;28;20144;-55
2021/09/28 12:59:46;;;;;;;0.65;0.10;;;25.40;44.90;;;;;;5051251;28;20055;-55
2021/09/28 13:02:21;;;;;;;1.42;0.10;;;25.40;44.90;;;;;;5055696;28;20033;-54
2021/09/28 13:04:50;;;;;;;1.73;0.20;;;25.40;44.80;;;;;;5052993;28;20127;-56
2021/09/28 13:07:16;;;;;;;0.57;0.10;;;25.50;44.80;;;;;;5062969;28;20049;-56